Time;durP1;ratioP1;P1;durP2;ratioP2;P2;SDS_P1;SDS_P2;PMS_P1;PMS_P2;Temp;Humidity;BMP_temperature;BMP_pressure;BME280_temperature;BME280_humidity;BME280_pressure;Samples;Min_cycle;Max_cycle;Signal;HPM_P1;HPM_P2
2022/01/17 00:06:25;;;;;;;0.28;0.08;;;1.10;74.50;;;;;;20890932;28;20032;-53
2022/01/17 00:16:40;;;;;;;1.45;0.10;;;1.10;75.40;;;;;;20888752;28;20469;-55
2022/01/17 00:26:44;;;;;;;0.30;0.10;;;1.40;74.10;;;;;;20888419;28;20118;-52
2022/01/17 00:36:46;;;;;;;1.17;0.00;;;1.90;69.50;;;;;;20887266;28;20113;-51
2022/01/17 00:46:51;;;;;;;0.10;0.00;;;2.10;71.10;;;;;;20886720;28;20416;-55
2022/01/17 00:56:53;;;;;;;0.35;0.10;;;1.70;71.90;;;;;;20885685;28;20032;-51
2022/01/17 01:06:56;;;;;;;0.10;0.00;;;1.40;71.70;;;;;;20885199;28;20036;-57
2022/01/17 01:17:06;;;;;;;0.00;0.00;;;1.80;69.30;;;;;;20884690;28;20057;-56
2022/01/17 01:37:15;;;;;;;0.43;0.00;;;2.70;63.30;;;;;;20882809;28;20028;-55
2022/01/17 01:47:25;;;;;;;0.00;0.00;;;3.10;63.40;;;;;;20884396;28;20057;-53
2022/01/17 01:57:28;;;;;;;0.00;0.00;;;2.30;67.20;;;;;;20883593;28;20488;-53
2022/01/17 02:07:31;;;;;;;0.00;0.00;;;2.00;68.30;;;;;;20882386;28;20044;-55
2022/01/17 02:17:40;;;;;;;0.00;0.00;;;2.10;66.40;;;;;;20882039;28;20094;-55
2022/01/17 02:27:44;;;;;;;0.10;0.05;;;1.80;69.80;;;;;;20881611;28;20049;-57
2022/01/17 02:37:49;;;;;;;0.25;0.00;;;1.40;69.90;;;;;;20881862;28;20107;-52
2022/01/17 02:47:51;;;;;;;0.30;0.00;;;2.50;65.00;;;;;;20886737;28;20036;-54
2022/01/17 02:57:54;;;;;;;0.10;0.00;;;2.00;68.60;;;;;;20895043;28;20045;-55
2022/01/17 03:07:56;;;;;;;0.10;0.00;;;1.40;69.80;;;;;;20894980;28;20041;-56
2022/01/17 03:17:59;;;;;;;0.10;0.00;;;1.10;74.40;;;;;;20893723;28;20045;-53
2022/01/17 03:28:02;;;;;;;0.00;0.00;;;1.10;71.10;;;;;;20892559;28;20111;-52
2022/01/17 03:38:09;;;;;;;0.65;0.00;;;2.00;69.70;;;;;;20891953;28;20037;-52
2022/01/17 03:48:12;;;;;;;0.10;0.00;;;1.50;72.00;;;;;;20892706;28;20480;-55
2022/01/17 03:58:15;;;;;;;0.10;0.10;;;1.20;72.70;;;;;;20890075;28;20102;-54
2022/01/17 04:08:19;;;;;;;0.90;0.10;;;1.40;73.90;;;;;;20890735;28;20048;-55
2022/01/17 04:18:24;;;;;;;0.10;0.00;;;1.60;72.70;;;;;;20888942;28;20045;-53
2022/01/17 04:28:27;;;;;;;0.03;0.00;;;1.00;74.30;;;;;;20888449;28;20053;-53
2022/01/17 04:38:30;;;;;;;0.08;0.00;;;0.60;76.70;;;;;;20888284;28;20037;-53
2022/01/17 04:48:34;;;;;;;0.25;0.10;;;0.70;75.60;;;;;;20886456;28;20029;-52
2022/01/17 04:58:37;;;;;;;0.00;0.00;;;1.30;73.80;;;;;;20886164;28;20033;-55
2022/01/17 05:08:39;;;;;;;0.20;0.00;;;1.70;72.70;;;;;;20885442;28;20067;-56
2022/01/17 05:28:44;;;;;;;0.20;0.00;;;1.50;72.10;;;;;;20885355;28;20092;-55
2022/01/17 05:38:47;;;;;;;0.10;0.00;;;1.60;72.60;;;;;;20883844;28;20036;-52
2022/01/17 05:48:50;;;;;;;0.10;0.00;;;1.60;71.60;;;;;;20900313;28;20045;-55
2022/01/17 05:58:52;;;;;;;0.25;0.00;;;1.40;71.20;;;;;;20882695;28;20461;-55
2022/01/17 06:08:54;;;;;;;2.60;0.00;;;1.20;75.00;;;;;;20882221;28;20083;-51
2022/01/17 06:18:58;;;;;;;0.00;0.00;;;1.00;73.90;;;;;;20881984;28;20110;-54
2022/01/17 06:29:01;;;;;;;0.05;0.00;;;1.00;74.20;;;;;;20897140;28;20086;-57
2022/01/17 06:39:04;;;;;;;0.17;0.00;;;1.00;74.70;;;;;;20896271;28;20090;-54
2022/01/17 06:49:08;;;;;;;0.00;0.00;;;1.00;75.10;;;;;;20896111;28;20041;-54
2022/01/17 06:59:12;;;;;;;0.00;0.00;;;1.00;74.10;;;;;;20895057;28;20033;-53
2022/01/17 07:09:19;;;;;;;0.20;0.00;;;1.30;74.30;;;;;;20894682;28;20477;-55
2022/01/17 07:19:23;;;;;;;0.30;0.00;;;1.40;75.40;;;;;;20893728;28;20136;-53
2022/01/17 07:29:26;;;;;;;1.88;0.10;;;1.50;73.60;;;;;;20892852;28;20111;-53
2022/01/17 07:39:30;;;;;;;0.17;0.03;;;2.00;73.90;;;;;;20891077;28;20033;-56
2022/01/17 07:49:34;;;;;;;0.30;0.05;;;2.50;72.20;;;;;;20908157;28;20544;-54
2022/01/17 07:59:37;;;;;;;0.20;0.10;;;3.00;72.30;;;;;;20891031;28;20036;-51
2022/01/17 08:09:40;;;;;;;0.20;0.10;;;3.70;71.20;;;;;;20891864;28;20025;-55
2022/01/17 08:19:43;;;;;;;0.00;0.00;;;4.20;68.70;;;;;;20889246;28;20086;-53
2022/01/17 08:29:46;;;;;;;0.00;0.00;;;4.70;67.70;;;;;;20888335;28;20087;-52
2022/01/17 08:39:53;;;;;;;0.05;0.00;;;4.00;69.80;;;;;;20887838;28;20439;-53
2022/01/17 08:49:56;;;;;;;0.00;0.00;;;3.70;71.00;;;;;;20886449;28;20032;-52
2022/01/17 08:59:59;;;;;;;0.22;0.10;;;4.00;71.80;;;;;;20886029;28;20570;-52
2022/01/17 09:10:02;;;;;;;0.00;0.00;;;5.10;70.40;;;;;;20885421;28;20033;-52
2022/01/17 09:20:06;;;;;;;0.25;0.00;;;5.40;66.70;;;;;;20884693;28;20086;-56
2022/01/17 09:30:12;;;;;;;0.00;0.00;;;5.60;65.70;;;;;;20883978;28;20049;-57
2022/01/17 09:40:15;;;;;;;0.00;0.00;;;5.80;65.80;;;;;;20883798;28;20790;-54
2022/01/17 09:50:22;;;;;;;0.08;0.00;;;6.40;64.80;;;;;;20883661;28;20567;-55
2022/01/17 10:00:28;;;;;;;0.00;0.00;;;6.60;63.00;;;;;;20893601;28;20036;-52
2022/01/17 10:10:57;;;;;;;0.32;0.00;;;6.60;64.40;;;;;;20899629;28;20087;-56
2022/01/17 10:21:14;;;;;;;0.00;0.00;;;6.40;63.20;;;;;;20898603;28;20087;-52
2022/01/17 10:41:37;;;;;;;0.10;0.10;;;7.30;62.60;;;;;;20913748;28;20078;-57
2022/01/17 10:51:42;;;;;;;0.95;0.17;;;7.50;65.00;;;;;;20912845;28;20534;-55
2022/01/17 11:01:53;;;;;;;0.00;0.00;;;7.70;64.90;;;;;;20912574;28;20037;-55
2022/01/17 11:11:57;;;;;;;0.05;0.00;;;7.70;62.40;;;;;;20911575;28;20370;-55
2022/01/17 11:22:00;;;;;;;0.28;0.00;;;7.30;64.90;;;;;;20910497;28;20037;-55
2022/01/17 11:32:03;;;;;;;0.08;0.00;;;7.20;63.90;;;;;;20926287;28;20057;-53
2022/01/17 11:42:49;;;;;;;0.10;0.00;;;7.00;63.90;;;;;;20908473;28;20036;-52
2022/01/17 11:52:52;;;;;;;0.13;0.00;;;6.50;63.90;;;;;;20718881;28;20045;-57
2022/01/17 12:03:21;;;;;;;0.13;0.00;;;7.00;63.60;;;;;;20717813;28;20045;-56
2022/01/17 12:13:34;;;;;;;0.10;0.03;;;7.30;63.70;;;;;;20759987;28;20041;-57
2022/01/17 12:23:37;;;;;;;0.15;0.00;;;7.40;64.60;;;;;;20849783;28;20040;-53
2022/01/17 12:33:40;;;;;;;2.30;0.10;;;7.30;65.40;;;;;;20889816;28;20106;-53
2022/01/17 12:43:43;;;;;;;0.00;0.00;;;7.70;65.60;;;;;;20887458;28;20033;-54
2022/01/17 12:53:50;;;;;;;0.00;0.00;;;8.00;60.70;;;;;;20886936;28;20546;-54
2022/01/17 13:04:04;;;;;;;0.65;0.05;;;7.50;61.60;;;;;;20886639;28;20466;-54
2022/01/17 13:14:09;;;;;;;0.10;0.00;;;7.40;62.80;;;;;;20902896;28;20115;-55
2022/01/17 13:34:30;;;;;;;0.00;0.00;;;7.10;63.40;;;;;;20883187;28;20033;-57
2022/01/17 13:44:36;;;;;;;0.17;0.00;;;6.90;62.10;;;;;;20883844;28;20423;-57
2022/01/17 13:54:42;;;;;;;1.75;0.00;;;6.70;61.70;;;;;;20883460;28;20037;-56
2022/01/17 14:04:44;;;;;;;0.20;0.00;;;6.60;62.70;;;;;;20882929;28;20107;-57
2022/01/17 14:14:51;;;;;;;0.00;0.00;;;6.50;63.70;;;;;;20882532;28;20402;-53
2022/01/17 14:24:54;;;;;;;0.30;0.00;;;6.40;64.10;;;;;;20882115;28;20041;-57
2022/01/17 14:34:58;;;;;;;0.38;0.00;;;6.10;65.00;;;;;;20881696;28;20037;-57
2022/01/17 14:45:17;;;;;;;0.22;0.00;;;6.00;64.60;;;;;;20888975;28;20048;-53
2022/01/17 14:55:47;;;;;;;0.22;0.00;;;5.90;64.90;;;;;;20895820;28;20041;-54
2022/01/17 15:05:45;;;;;;;0.05;0.00;;;5.70;65.40;;;;;;20895743;28;20408;-55
2022/01/17 15:15:48;;;;;;;0.05;0.00;;;5.60;66.00;;;;;;20894851;28;20045;-56
2022/01/17 15:25:51;;;;;;;0.10;0.00;;;5.30;65.90;;;;;;20893045;28;20500;-58
2022/01/17 15:35:54;;;;;;;0.15;0.10;;;4.70;68.90;;;;;;20892630;28;20025;-57
2022/01/17 15:45:57;;;;;;;0.17;0.00;;;4.00;69.10;;;;;;20893274;28;20106;-56
2022/01/17 15:56:00;;;;;;;0.00;0.00;;;3.70;69.60;;;;;;20890281;28;20032;-56
2022/01/17 16:06:03;;;;;;;0.10;0.00;;;4.00;68.40;;;;;;20890773;28;20531;-58
2022/01/17 16:16:07;;;;;;;0.00;0.00;;;4.20;67.70;;;;;;20889476;28;20029;-53
2022/01/17 16:26:09;;;;;;;0.10;0.00;;;4.20;66.40;;;;;;20905800;28;20056;-56
2022/01/17 16:36:16;;;;;;;0.00;0.00;;;4.70;66.70;;;;;;20887942;28;20041;-56
2022/01/17 16:46:21;;;;;;;0.03;0.00;;;4.40;67.10;;;;;;20887979;28;20091;-52
2022/01/17 16:56:24;;;;;;;0.00;0.00;;;4.40;67.10;;;;;;20886350;28;20029;-56
2022/01/17 17:06:27;;;;;;;0.00;0.00;;;4.20;68.00;;;;;;20885873;28;20033;-55
2022/01/17 17:16:31;;;;;;;0.05;0.00;;;4.00;66.90;;;;;;20884949;28;20049;-62
2022/01/17 17:26:34;;;;;;;0.00;0.00;;;4.10;67.30;;;;;;20901503;28;20106;-62
2022/01/17 17:36:37;;;;;;;0.00;0.00;;;4.10;67.70;;;;;;20894990;28;20029;-64
2022/01/17 17:46:43;;;;;;;0.08;0.00;;;4.10;67.10;;;;;;20893166;28;20086;-54
2022/01/17 17:56:48;;;;;;;0.60;0.00;;;4.30;67.50;;;;;;20971029;28;20086;-52
2022/01/17 18:06:50;;;;;;;0.00;0.00;;;4.20;67.10;;;;;;20937324;28;20033;-55
2022/01/17 18:16:54;;;;;;;0.50;0.10;;;4.40;66.80;;;;;;20883548;28;20029;-56
2022/01/17 18:26:56;;;;;;;0.17;0.00;;;4.40;66.30;;;;;;20912421;28;20108;-57
2022/01/17 18:36:59;;;;;;;0.10;0.00;;;4.30;65.80;;;;;;20963153;28;20036;-58
2022/01/17 18:47:02;;;;;;;0.10;0.00;;;4.70;64.50;;;;;;20949415;28;20037;-47
2022/01/17 18:57:05;;;;;;;0.08;0.00;;;4.60;64.30;;;;;;20886413;28;20451;-48
2022/01/17 19:07:08;;;;;;;0.43;0.00;;;4.50;63.90;;;;;;20895355;28;20087;-45
2022/01/17 19:17:13;;;;;;;0.13;0.00;;;4.40;64.50;;;;;;20894198;28;20091;-46
2022/01/17 19:27:22;;;;;;;0.00;0.00;;;4.40;64.00;;;;;;20892942;28;20224;-49
2022/01/17 19:37:26;;;;;;;0.40;0.10;;;4.50;63.90;;;;;;20892136;28;20037;-46
2022/01/17 19:47:30;;;;;;;0.20;0.00;;;4.50;63.00;;;;;;20891513;28;20063;-46
2022/01/17 19:57:33;;;;;;;0.30;0.05;;;4.60;63.00;;;;;;20891641;28;20033;-48
2022/01/17 20:07:36;;;;;;;0.20;0.00;;;4.70;62.70;;;;;;20890110;28;20451;-45
2022/01/17 20:17:39;;;;;;;0.08;0.00;;;4.70;62.20;;;;;;20889038;28;20041;-46
2022/01/17 20:27:42;;;;;;;0.10;0.00;;;4.80;62.50;;;;;;20888545;28;20126;-45
2022/01/17 20:37:45;;;;;;;0.00;0.00;;;4.90;61.40;;;;;;20887337;28;20114;-47
2022/01/17 20:47:48;;;;;;;0.10;0.00;;;5.20;60.50;;;;;;20886816;28;20409;-47
2022/01/17 20:57:51;;;;;;;0.60;0.00;;;5.20;60.70;;;;;;20885995;28;20041;-47
2022/01/17 21:07:53;;;;;;;0.00;0.00;;;5.40;60.20;;;;;;20885342;28;20037;-48
2022/01/17 21:17:56;;;;;;;0.30;0.00;;;5.40;60.20;;;;;;20884512;28;20037;-45
2022/01/17 21:27:59;;;;;;;0.20;0.00;;;5.50;60.30;;;;;;20883825;28;20087;-47
2022/01/17 21:38:02;;;;;;;0.00;0.00;;;5.40;61.40;;;;;;20899995;28;20389;-47
2022/01/17 21:48:04;;;;;;;0.93;0.08;;;5.20;61.90;;;;;;20882884;28;20166;-48
2022/01/17 21:58:07;;;;;;;0.00;0.00;;;5.30;62.20;;;;;;20881516;28;20041;-46
2022/01/17 22:08:10;;;;;;;0.20;0.00;;;5.20;61.40;;;;;;20882132;28;20041;-47
2022/01/17 22:18:14;;;;;;;1.15;0.10;;;5.20;62.70;;;;;;20882005;28;20112;-47
2022/01/17 22:28:16;;;;;;;0.10;0.00;;;5.10;63.70;;;;;;20882246;28;20382;-48
2022/01/17 22:38:19;;;;;;;0.10;0.00;;;5.00;63.20;;;;;;20883000;28;20048;-45
2022/01/17 22:48:24;;;;;;;0.45;0.00;;;5.10;63.80;;;;;;20865107;28;20473;-48
2022/01/17 22:58:26;;;;;;;0.15;0.00;;;5.10;63.80;;;;;;20880559;28;20555;-46
2022/01/17 23:08:29;;;;;;;0.03;0.00;;;5.10;64.70;;;;;;20891700;28;20059;-45
2022/01/17 23:18:37;;;;;;;2.58;0.28;;;5.10;65.50;;;;;;20894159;28;20040;-45
2022/01/17 23:28:48;;;;;;;0.00;0.00;;;5.00;65.40;;;;;;20893450;28;20053;-45
2022/01/17 23:38:51;;;;;;;0.30;0.00;;;4.80;67.20;;;;;;20892807;28;20414;-47
2022/01/17 23:48:53;;;;;;;0.10;0.03;;;4.70;66.80;;;;;;20891605;28;20033;-45
2022/01/17 23:59:00;;;;;;;0.10;0.00;;;4.80;67.20;;;;;;20891006;28;20037;-45
